Latest Coastal Weather Observations for Karratha

IDW60701

Issued at 4:12 am WST Thursday 28 May 2015 (issued every 10 minutes, with the page automatically refreshed every 10 minutes)

About coastal observations | Map of coastal stations | Coastal observations for WA | Marine services | Other Formats
Station Details ID: 004083 Name: KARRATHA AERO Lat: -20.71 Lon: 116.77 Height: 5.3 m
Data from the previous 72 hours. | See also: Recent months at Karratha
Date/Time
WST
Temp

°C
Wind Pressure Rain
since 9am
mm
Weather Cloud Vis
km
Sea
Height
m
Swell
Dir
 
Speed
knots
Gust
knots
hPa Trend Height
m
Period
s
Dir
28/04:00am 19.5 E 10 13 1014.1 - 28.8 - - - - - - -
28/03:30am 19.7 ESE 8 11 1014.2 - 28.0 - - - - - - -
28/03:00am 19.8 ESE 10 12 1013.8 - 28.0 - - - - - - -
28/02:30am 20.1 ENE 13 16 1013.9 - 28.0 - - - - - - -
28/02:00am 20.1 E 10 15 1014.3 - 28.0 - - - - - - -
28/01:30am 19.9 E 10 12 1014.2 - 28.0 - - - - - - -
28/01:00am 19.7 ENE 11 14 1014.1 - 28.0 - - - - - - -
28/12:30am 19.6 ENE 11 14 1014.1 - 28.0 - - - - - - -
28/12:00am 19.4 ENE 10 12 1014.4 - 27.2 Rain - - - - - -
 
Date/Time
WST
Temp

°C
Wind Pressure Rain
since 9am
mm
Weather Cloud Vis
km
Sea
Height
m
Swell
Dir
 
Speed
knots
Gust
knots
hPa Trend Height
m
Period
s
Dir
27/11:30pm 19.4 E 10 12 1014.4 - 25.8 - - - - - - -
27/11:00pm 19.5 E 8 11 1015.0 - 24.2 - - - - - - -
27/10:30pm 19.4 ENE 11 14 1015.4 - 22.4 - - - - - - -
27/10:00pm 19.5 ENE 13 16 1015.3 - 21.8 - - - - - - -
27/09:30pm 19.5 E 14 19 1014.8 - 21.8 - - - - - - -
27/09:00pm 19.6 E 15 18 1015.1 - 21.8 - - - - - - -
27/08:30pm 19.7 E 11 14 1015.2 - 21.8 - - - - - - -
27/08:00pm 19.7 E 12 15 1015.2 - 21.8 - - - - - - -
27/07:30pm 19.7 ESE 10 12 1015.1 - 21.8 - - - - - - -
27/07:00pm 19.7 ESE 8 9 1015.0 - 21.8 - - - - - - -
27/06:30pm 19.7 E 6 8 1015.0 - 21.6 - - - - - - -
27/06:00pm 19.8 ESE 5 8 1014.7 - 21.6 Recent precip. - - - - - -
27/05:30pm 19.7 ESE 5 7 1014.2 - 21.2 - - - - - - -
27/05:00pm 19.8 SSE 8 11 1013.9 - 17.8 - - - - - - -
27/04:30pm 19.8 SE 7 9 1013.1 - 14.8 - - - - - - -
27/04:00pm 19.9 SE 10 13 1012.9 - 11.0 - - - - - - -
27/03:30pm 20.1 SE 10 13 1013.3 - 6.8 - Partly cloudy 2 - - - -
27/03:20pm 20.3 ESE 10 14 1013.2 - 4.0 - Partly cloudy 5 - - - -
27/03:00pm 20.3 SE 10 13 1013.3 - 3.2 Recent precip. Cloudy 10 - - - -
27/02:53pm 20.4 SE 9 13 1013.1 - 3.2 - Partly cloudy 10 - - - -
27/02:37pm 20.4 SE 11 13 1012.8 - 3.2 - Partly cloudy 10 - - - -
27/02:30pm 20.4 ESE 11 14 1012.8 - 3.2 - Partly cloudy 10 - - - -
27/02:00pm 20.5 ESE 11 14 1012.9 - 2.6 - Cloudy 10 - - - -
27/01:30pm 21.0 SE 10 12 1013.0 - 2.6 - Cloudy 10 - - - -
27/01:00pm 21.2 SE 9 12 1013.2 - 2.6 - Partly cloudy 10 - - - -
27/12:45pm 21.0 ESE 9 11 1013.6 - 2.6 - Partly cloudy 10 - - - -
27/12:30pm 21.0 ESE 9 11 1013.9 - 2.6 - Partly cloudy 10 - - - -
27/12:00pm 20.3 SE 9 11 1014.0 - 2.4 - Cloudy 10 - - - -
27/11:54am 20.2 SE 10 13 1014.3 - 2.4 - Partly cloudy 10 - - - -
27/11:30am 20.1 SE 9 13 1015.1 - 2.4 - Partly cloudy 10 - - - -
27/11:10am 20.0 ESE 8 10 1015.5 - 2.4 - Partly cloudy 10 - - - -
27/11:07am 20.2 ESE 9 10 1015.4 - 2.4 - Partly cloudy 10 - - - -
27/11:00am 19.9 ESE 9 10 1015.4 - 2.4 - Partly cloudy 7 - - - -
27/10:46am 19.8 ESE 9 11 1015.6 - 1.6 - Partly cloudy 5 - - - -
27/10:30am 19.7 ESE 10 12 1015.7 - 0.8 - Cloudy 10 - - - -
27/10:12am 19.6 ESE 11 14 1015.6 - 0.8 - Partly cloudy 10 - - - -
27/10:00am 19.5 SE 12 15 1015.6 - 0.8 - Partly cloudy 10 - - - -
27/09:53am 19.3 ESE 10 13 1015.7 - 0.8 - Partly cloudy 9 - - - -
27/09:30am 19.0 ESE 8 10 1016.4 - 0.6 - Partly cloudy 9 - - - -
27/09:00am 19.0 E 11 14 1016.4 - 9.6 Recent precip. Mostly cloudy 10 - - - -
27/08:30am 18.8 ENE 8 11 1016.2 - 9.4 - Partly cloudy 7 - - - -
27/08:00am 18.4 E 7 9 1015.8 - 9.0 - Partly cloudy 10 - - - -
27/07:30am 18.5 E 7 9 1015.3 - 8.6 - Partly cloudy 8 - - - -
27/07:00am 18.6 E 10 13 1015.2 - 5.8 - Partly cloudy 8 - - - -
27/06:30am 19.0 E 9 13 1015.2 - 3.2 - Partly cloudy 7 - - - -
27/06:00am 19.3 ENE 8 10 1015.0 - 1.0 Rain Cloudy 10 - - - -
27/05:30am 20.2 ESE 6 7 1014.5 - 0.0 - Partly cloudy 10 - - - -
27/05:00am 20.8 ESE 8 10 1014.1 - 0.0 - Partly cloudy 10 - - - -
27/04:30am 20.7 ESE 6 7 1014.1 - 0.0 - Partly cloudy 10 - - - -
27/04:00am 20.7 E 8 9 1014.3 - 0.0 - Partly cloudy 10 - - - -
27/03:30am 20.8 SSE 6 8 1014.7 - 0.0 - Cloudy 10 - - - -
27/03:00am 21.2 ESE 10 13 1014.6 - 0.0 - Cloudy 10 - - - -
27/02:30am 20.7 ESE 8 9 1014.7 - 0.0 - - 10 - - - -
27/02:00am 21.1 ESE 6 9 1015.1 - 0.0 - Partly cloudy 10 - - - -
27/01:30am 20.7 ESE 9 10 1015.1 - 0.0 - Partly cloudy 10 - - - -
27/01:00am 21.0 ESE 10 12 1015.4 - 0.0 - Partly cloudy 10 - - - -
27/12:30am 20.8 ESE 9 10 1015.7 - 0.0 - Partly cloudy 10 - - - -
27/12:00am 21.2 ESE 7 9 1016.0 - 0.0 - Cloudy 10 - - - -
 
Date/Time
WST
Temp

°C
Wind Pressure Rain
since 9am
mm
Weather Cloud Vis
km
Sea
Height
m
Swell
Dir
 
Speed
knots
Gust
knots
hPa Trend Height
m
Period
s
Dir
26/11:30pm 21.1 ESE 7 9 1016.3 - 0.0 - Partly cloudy 10 - - - -
26/11:00pm 21.4 ESE 8 10 1016.6 - 0.0 - - 10 - - - -
26/10:30pm 21.5 E 9 10 1016.7 - 0.0 - Partly cloudy 10 - - - -
26/10:00pm 22.0 E 8 10 1016.9 - 0.0 - Partly cloudy 10 - - - -
26/09:30pm 21.9 ESE 7 8 1016.9 - 0.0 - Partly cloudy 10 - - - -
26/09:00pm 22.0 ESE 5 6 1016.9 - 0.0 - Cloudy 10 - - - -
26/08:30pm 22.1 ESE 6 7 1016.8 - 0.0 - Partly cloudy 10 - - - -
26/08:00pm 22.3 E 5 7 1016.7 - 0.0 - Partly cloudy 10 - - - -
26/07:30pm 22.0 E 5 6 1016.4 - 0.0 - Partly cloudy 10 - - - -
26/07:00pm 22.4 ENE 7 8 1015.9 - 0.0 - - 10 - - - -
26/06:30pm 22.6 ENE 8 9 1015.5 - 0.0 - - 10 - - - -
26/06:00pm 22.9 ENE 8 11 1015.3 - 0.0 - Cloudy 10 - - - -
26/05:30pm 23.5 ENE 10 13 1015.2 - 0.0 - Partly cloudy 10 - - - -
26/05:00pm 24.0 ENE 10 12 1015.1 - 0.0 - Partly cloudy 10 - - - -
26/04:30pm 24.4 ENE 11 14 1014.9 - 0.0 - Partly cloudy 10 - - - -
26/04:00pm 24.9 ENE 12 15 1014.8 - 0.0 - Partly cloudy 10 - - - -
26/03:30pm 24.5 NE 12 16 1014.8 - 0.0 - Partly cloudy 10 - - - -
26/03:00pm 25.5 NE 14 16 1014.6 - 0.0 - Partly cloudy 10 - - - -
26/02:30pm 25.3 NE 13 16 1014.6 - 0.0 - Partly cloudy 10 - - - -
26/02:00pm 25.9 ENE 13 16 1014.8 - 0.0 - Partly cloudy 10 - - - -
26/01:30pm 25.6 ENE 11 14 1015.0 - 0.0 - Cloudy 10 - - - -
26/01:00pm 25.8 ENE 13 16 1015.4 - 0.0 - Partly cloudy 10 - - - -
26/12:30pm 26.0 E 13 17 1015.9 - 0.0 - - 10 - - - -
26/12:00pm 25.2 E 14 16 1016.2 - 0.0 - Mostly clear 10 - - - -
26/11:30am 24.7 E 15 19 1016.5 - 0.0 - - 10 - - - -
26/11:00am 24.6 E 15 19 1016.5 - 0.0 - Partly cloudy 10 - - - -
26/10:30am 23.4 E 14 18 1017.1 - 0.0 - Cloudy 10 - - - -
26/10:00am 23.5 E 12 15 1017.5 - 0.0 - Cloudy 10 - - - -
26/09:30am 21.7 E 10 13 1017.7 - 0.0 - Cloudy 10 - - - -
26/09:00am 21.3 E 11 14 1017.6 - 1.0 - Cloudy 10 - - - -
26/08:30am 20.7 ESE 11 13 1017.2 - 1.0 - Cloudy 10 - - - -
26/08:00am 20.3 ESE 10 13 1017.0 - 1.0 - Partly cloudy 10 - - - -
26/07:30am 19.4 E 7 9 1016.6 - 1.0 - Partly cloudy 10 - - - -
26/07:00am 19.0 E 8 11 1016.3 - 1.0 - Partly cloudy 10 - - - -
26/06:30am 19.0 E 9 12 1015.9 - 1.0 - Cloudy 10 - - - -
26/06:00am 18.7 ESE 7 9 1016.0 - 1.0 - Cloudy 10 - - - -
26/05:30am 18.7 ESE 7 9 1015.8 - 1.0 - Partly cloudy 10 - - - -
26/05:00am 18.6 ESE 9 11 1015.6 - 1.0 - Partly cloudy 10 - - - -
26/04:30am 18.9 SE 9 12 1015.7 - 1.0 - Cloudy 10 - - - -
26/04:00am 18.8 ESE 10 13 1015.5 - 1.0 - Partly cloudy 10 - - - -
26/03:30am 18.8 ESE 10 12 1015.4 - 1.0 - Partly cloudy 10 - - - -
26/03:00am 19.1 ESE 10 14 1015.5 - 1.0 - Partly cloudy 10 - - - -
26/02:30am 19.1 ESE 9 12 1015.7 - 1.0 - Partly cloudy 10 - - - -
26/02:00am 19.0 ESE 7 10 1016.0 - 1.0 - Cloudy 10 - - - -
26/01:30am 18.8 SE 9 11 1016.1 - 1.0 - Cloudy 10 - - - -
26/01:00am 19.0 ESE 7 9 1016.2 - 1.0 - Partly cloudy 10 - - - -
26/12:30am 19.0 ESE 9 11 1016.4 - 1.0 - Partly cloudy 10 - - - -
26/12:00am 19.0 ESE 8 11 1016.8 - 1.0 - Mostly cloudy 10 - - - -
 
Date/Time
WST
Temp

°C
Wind Pressure Rain
since 9am
mm
Weather Cloud Vis
km
Sea
Height
m
Swell
Dir
 
Speed
knots
Gust
knots
hPa Trend Height
m
Period
s
Dir
25/11:30pm 19.1 SE 8 10 1017.0 - 1.0 - Cloudy 10 - - - -
25/11:00pm 19.2 SE 9 11 1017.1 - 1.0 - Cloudy 10 - - - -
25/10:30pm 19.1 ESE 10 12 1016.9 - 1.0 - Partly cloudy 10 - - - -
25/10:00pm 19.0 ESE 11 13 1016.7 - 1.0 - Cloudy 10 - - - -
25/09:30pm 19.0 SE 11 14 1016.9 - 1.0 - Cloudy 10 - - - -
25/09:00pm 18.9 SE 10 13 1016.9 - 1.0 - Cloudy 10 - - - -
25/08:30pm 19.0 SE 11 15 1016.7 - 1.0 - Partly cloudy 10 - - - -
25/08:00pm 19.1 ESE 12 16 1016.8 - 1.0 - Partly cloudy 10 - - - -
25/07:30pm 19.2 ESE 13 15 1016.4 - 1.0 - Cloudy 10 - - - -
25/07:00pm 19.2 ESE 15 17 1015.9 - 1.0 - Cloudy 10 - - - -
25/06:30pm 19.1 ESE 14 17 1015.5 - 1.0 - Cloudy 10 - - - -
25/06:00pm 19.0 ESE 12 16 1015.2 - 1.0 - Cloudy 10 - - - -
25/05:30pm 19.0 ESE 12 15 1015.1 - 1.0 - Partly cloudy 10 - - - -
25/05:00pm 19.4 ESE 14 18 1014.9 - 1.0 - Cloudy 10 - - - -
25/04:30pm 19.6 ESE 13 16 1014.8 - 1.0 - Cloudy 10 - - - -
25/04:00pm 19.3 ESE 14 17 1014.8 - 1.0 - Cloudy 10 - - - -
25/03:30pm 19.1 ESE 14 17 1014.7 - 1.0 - Partly cloudy 10 - - - -
25/03:24pm 18.9 ESE 13 17 1014.7 - 1.0 - Partly cloudy 10 - - - -
25/03:00pm 18.9 ESE 12 15 1014.7 - 1.0 - Cloudy 10 - - - -
25/02:30pm 18.5 ESE 13 19 1014.6 - 1.0 - Partly cloudy 10 - - - -
25/02:00pm 18.2 ESE 15 18 1014.8 - 1.0 - Partly cloudy 10 - - - -
25/01:47pm 18.1 ESE 14 17 1014.9 - 1.0 - Partly cloudy 10 - - - -
25/01:38pm 17.9 ESE 14 18 1014.9 - 1.0 - Partly cloudy 10 - - - -
25/01:30pm 18.1 ESE 16 21 1015.0 - 1.0 - Partly cloudy 6 - - - -
25/01:12pm 17.9 ESE 16 19 1015.2 - 0.8 - Partly cloudy 3 - - - -
25/01:00pm 18.0 ESE 15 19 1015.4 - 0.4 - Partly cloudy 5 - - - -
25/12:59pm 17.8 ESE 15 19 1015.5 - 0.4 - Partly cloudy 5 - - - -
25/12:42pm 17.7 ESE 15 18 1015.7 - 0.4 - Partly cloudy 10 - - - -
25/12:30pm 17.7 ESE 17 21 1015.9 - 0.4 - Partly cloudy 5 - - - -
25/12:11pm 17.9 ESE 18 23 1016.0 - 0.2 - Partly cloudy 5 - - - -
25/12:00pm 17.7 ESE 18 22 1016.0 - 0.2 - Cloudy 10 - - - -
25/11:54am 17.9 ESE 18 22 1016.0 - 0.2 - Partly cloudy 10 - - - -
25/11:53am 17.8 ESE 18 22 1016.0 - 0.2 - Partly cloudy 10 - - - -
25/11:31am 17.6 ESE 19 25 1016.1 - 0.2 - Partly cloudy 10 - - - -
25/11:30am 17.5 ESE 19 25 1016.1 - 0.2 - Partly cloudy 10 - - - -
25/11:00am 17.0 E 23 27 1016.5 - 0.2 - Partly cloudy 4 - - - -
25/10:45am 17.0 E 23 28 1016.7 - 0.0 - Partly cloudy 6 - - - -
25/10:39am 17.2 E 23 28 1016.7 - 0.0 - Partly cloudy 6 - - - -
25/10:30am 17.4 E 21 27 1016.9 - 0.0 - Partly cloudy 5 - - - -
25/10:23am 17.5 E 21 28 1017.0 - 0.0 - Partly cloudy 5 - - - -
25/10:19am 17.3 E 21 28 1017.1 - 0.0 - Partly cloudy 5 - - - -
25/10:00am 17.5 E 24 31 1017.3 - 0.0 - Cloudy 10 - - - -
25/09:30am 18.9 E 24 30 1017.1 - 0.0 - Cloudy 10 - - - -
25/09:00am 18.7 E 18 22 1017.3 - 16.2 - Cloudy 10 - - - -
25/08:30am 18.6 ESE 20 24 1017.0 - 16.2 - Cloudy 10 - - - -
25/08:00am 18.4 ESE 16 20 1017.0 - 16.2 - Cloudy 10 - - - -
25/07:30am 18.3 E 16 19 1016.6 - 16.2 - Cloudy 10 - - - -
25/07:12am 18.1 E 16 22 1016.3 - 16.2 - Partly cloudy 10 - - - -
25/07:00am 18.2 E 19 24 1016.2 - 16.2 - Partly cloudy 10 - - - -
25/06:30am 18.3 ESE 16 21 1015.9 - 16.2 - Partly cloudy 10 - - - -
25/06:27am 18.3 ESE 16 21 1015.8 - 16.2 - Partly cloudy 10 - - - -
25/06:00am 18.2 ESE 16 22 1015.5 - 16.2 - Cloudy 10 - - - -
25/05:31am 18.1 ESE 17 21 1015.2 - 16.2 - Partly cloudy 10 - - - -
25/05:30am 18.1 ESE 17 20 1015.2 - 16.2 - Partly cloudy 10 - - - -
25/05:00am 18.1 ESE 18 23 1014.8 - 16.2 - Cloudy 10 - - - -
25/04:30am 18.1 ESE 17 22 1014.9 - 16.2 - Cloudy 10 - - - -

Other Formats:

Comma delimited format used in spreadsheet applications
http://www.bom.gov.au/fwo/IDW60701/IDW60701.95307.axf

JavaScript Object Notation format (JSON) in row-major order
http://www.bom.gov.au/fwo/IDW60701/IDW60701.95307.json